Time;durP1;ratioP1;P1;durP2;ratioP2;P2;SDS_P1;SDS_P2;PMS_P1;PMS_P2;Temp;Humidity;BMP_temperature;BMP_pressure;BME280_temperature;BME280_humidity;BME280_pressure;Samples;Min_cycle;Max_cycle;Signal;HPM_P1;HPM_P2
2023/05/03 00:01:21;;;;;;;6.83;6.23;;;13.60;49.80;;;;;;20482;6853;312460;-78
2023/05/03 00:03:47;;;;;;;6.80;6.13;;;13.90;49.20;;;;;;20642;6853;117190;-77
2023/05/03 00:06:12;;;;;;;6.32;5.82;;;13.70;49.40;;;;;;20676;6853;118825;-78
2023/05/03 00:08:38;;;;;;;6.70;6.10;;;13.40;50.20;;;;;;20442;6853;282618;-78
2023/05/03 00:11:04;;;;;;;6.10;5.50;;;13.40;50.00;;;;;;20673;6853;117749;-77
2023/05/03 00:13:29;;;;;;;6.00;5.50;;;13.30;50.20;;;;;;20680;6853;120035;-78
2023/05/03 00:15:55;;;;;;;6.70;6.10;;;13.10;50.70;;;;;;20478;6853;307331;-77
2023/05/03 00:18:21;;;;;;;6.50;6.03;;;13.20;50.30;;;;;;20466;6853;309060;-78
2023/05/03 00:20:47;;;;;;;5.97;5.57;;;13.40;50.00;;;;;;20694;6853;117327;-78
2023/05/03 00:23:12;;;;;;;5.73;5.33;;;13.40;49.90;;;;;;20696;6853;118356;-79
2023/05/03 00:25:38;;;;;;;5.57;5.07;;;13.10;50.40;;;;;;20695;6853;117111;-79
2023/05/03 00:28:04;;;;;;;6.83;6.37;;;13.00;50.70;;;;;;20481;6852;308318;-78
2023/05/03 00:30:30;;;;;;;6.77;6.20;;;13.00;50.70;;;;;;20436;6853;279444;-78
2023/05/03 00:32:55;;;;;;;6.55;5.95;;;13.40;49.80;;;;;;20669;6853;119559;-79
2023/05/03 00:35:21;;;;;;;5.70;5.30;;;13.30;50.10;;;;;;20664;6853;117114;-78
2023/05/03 00:37:46;;;;;;;6.22;5.75;;;13.00;50.70;;;;;;20435;6853;339971;-78
2023/05/03 00:40:15;;;;;;;6.25;5.75;;;13.10;50.70;;;;;;20467;6853;286199;-78
2023/05/03 00:42:38;;;;;;;6.53;5.93;;;13.40;50.30;;;;;;20429;6853;308241;-81
2023/05/03 00:45:05;;;;;;;5.32;4.97;;;13.40;49.80;;;;;;20640;6853;117081;-83
2023/05/03 00:47:30;;;;;;;6.47;6.03;;;13.50;49.80;;;;;;20461;6853;312794;-79
2023/05/03 00:49:55;;;;;;;5.68;5.20;;;13.50;49.60;;;;;;20684;6853;117147;-77
2023/05/03 00:52:21;;;;;;;6.80;6.40;;;13.30;50.00;;;;;;20461;6853;336543;-77
2023/05/03 00:54:47;;;;;;;5.73;5.23;;;13.30;49.80;;;;;;20705;6853;121293;-77
2023/05/03 00:57:14;;;;;;;6.43;6.00;;;13.10;50.30;;;;;;20483;6853;341533;-78
2023/05/03 00:59:39;;;;;;;6.40;5.70;;;13.20;50.10;;;;;;20675;6853;117301;-78
2023/05/03 01:02:06;;;;;;;5.13;4.77;;;13.10;50.40;;;;;;20692;6853;117184;-77
2023/05/03 01:04:33;;;;;;;5.77;5.37;;;12.80;51.00;;;;;;20460;6853;308286;-77
2023/05/03 01:07:21;;;;;;;5.90;5.40;;;13.00;50.90;;;;;;20697;6853;117803;-77
2023/05/03 01:09:47;;;;;;;6.37;5.90;;;12.90;51.00;;;;;;20473;6853;307821;-77
2023/05/03 01:12:19;;;;;;;5.85;5.35;;;13.10;50.70;;;;;;20672;6853;118280;-77
2023/05/03 01:15:07;;;;;;;6.37;5.97;;;13.00;51.00;;;;;;20457;6853;307812;-77
2023/05/03 01:17:36;;;;;;;6.45;5.95;;;13.10;50.50;;;;;;20471;6853;337387;-78
2023/05/03 01:20:07;;;;;;;5.93;4.67;;;13.30;50.60;;;;;;20658;6853;118613;-77
2023/05/03 01:22:38;;;;;;;5.60;5.20;;;12.80;51.20;;;;;;20671;6853;117333;-78
2023/05/03 01:25:09;;;;;;;5.70;5.30;;;12.40;51.60;;;;;;20691;6853;117654;-78
2023/05/03 01:27:34;;;;;;;6.60;5.90;;;12.40;51.60;;;;;;20475;6853;307740;-78
2023/05/03 01:29:59;;;;;;;6.45;5.53;;;12.50;50.80;;;;;;20690;6853;117559;-77
2023/05/03 01:32:25;;;;;;;6.40;5.90;;;12.40;51.00;;;;;;20465;6853;279212;-77
2023/05/03 01:34:54;;;;;;;6.50;6.10;;;12.60;50.80;;;;;;20458;6853;305410;-78
2023/05/03 01:37:19;;;;;;;7.13;6.33;;;12.80;50.30;;;;;;20661;6853;118682;-77
2023/05/03 01:39:45;;;;;;;7.50;6.90;;;12.70;50.60;;;;;;20476;6852;308612;-78
2023/05/03 01:42:10;;;;;;;6.90;6.20;;;12.70;51.30;;;;;;20670;6853;117150;-77
2023/05/03 01:44:36;;;;;;;9.70;5.87;;;12.20;51.60;;;;;;20672;6853;118134;-78
2023/05/03 01:47:03;;;;;;;7.20;6.50;;;12.20;51.60;;;;;;20690;6853;117286;-76
2023/05/03 01:49:29;;;;;;;7.20;6.53;;;11.90;52.00;;;;;;20695;6853;118345;-77
2023/05/03 01:51:55;;;;;;;7.90;7.30;;;11.70;52.40;;;;;;20477;6853;307376;-78
2023/05/03 01:54:21;;;;;;;7.30;6.70;;;11.90;51.80;;;;;;20672;6853;118470;-78
2023/05/03 01:56:46;;;;;;;8.07;7.47;;;11.80;51.90;;;;;;20482;6853;278679;-78
2023/05/03 01:59:12;;;;;;;6.57;6.07;;;11.90;52.00;;;;;;20696;6853;117116;-77
2023/05/03 02:01:37;;;;;;;7.20;6.60;;;11.90;52.00;;;;;;20690;6853;118812;-78
2023/05/03 02:04:04;;;;;;;8.47;7.77;;;11.80;51.90;;;;;;20479;6853;307789;-78
2023/05/03 02:06:30;;;;;;;7.47;6.73;;;11.70;51.80;;;;;;20670;6853;118209;-78
2023/05/03 02:08:55;;;;;;;8.53;7.63;;;11.70;52.00;;;;;;20481;6853;279201;-78
2023/05/03 02:11:20;;;;;;;7.53;6.90;;;11.80;51.50;;;;;;20698;6853;117202;-78
2023/05/03 02:13:49;;;;;;;8.13;5.90;;;11.70;51.70;;;;;;20702;6853;118460;-78
2023/05/03 02:16:15;;;;;;;7.90;7.27;;;11.50;52.50;;;;;;20462;6853;316651;-79
2023/05/03 02:18:40;;;;;;;7.77;7.17;;;11.60;51.90;;;;;;20482;6853;282958;-78
2023/05/03 02:21:06;;;;;;;8.07;7.32;;;11.90;51.30;;;;;;20484;6853;280098;-77
2023/05/03 02:23:32;;;;;;;6.80;6.40;;;12.10;50.50;;;;;;20689;6853;117509;-79
2023/05/03 02:25:57;;;;;;;7.60;7.10;;;11.90;50.90;;;;;;20476;6853;310333;-78
2023/05/03 02:28:22;;;;;;;7.80;7.00;;;12.00;51.00;;;;;;20672;6853;118543;-77
2023/05/03 02:30:49;;;;;;;6.62;6.10;;;11.50;51.90;;;;;;20701;6853;121418;-78
2023/05/03 02:33:14;;;;;;;6.77;6.07;;;11.50;51.90;;;;;;20697;6853;117498;-78
2023/05/03 02:35:40;;;;;;;8.18;7.57;;;11.30;52.50;;;;;;20483;6853;311938;-78
2023/05/03 02:38:06;;;;;;;8.15;7.45;;;11.70;51.40;;;;;;20477;6853;307764;-78
2023/05/03 02:40:33;;;;;;;6.77;6.27;;;11.70;51.40;;;;;;20673;6853;144239;-78
2023/05/03 02:42:59;;;;;;;6.93;6.33;;;11.60;51.60;;;;;;20689;6853;118586;-77
2023/05/03 02:45:24;;;;;;;6.43;5.83;;;11.30;52.10;;;;;;20693;6853;117167;-77
2023/05/03 02:47:50;;;;;;;6.93;6.32;;;11.10;52.60;;;;;;20676;6853;114375;-78
2023/05/03 02:50:16;;;;;;;6.70;6.03;;;10.90;53.10;;;;;;20671;6851;118973;-77
2023/05/03 02:52:41;;;;;;;8.30;7.70;;;10.70;53.40;;;;;;20481;6853;307789;-77
2023/05/03 02:55:07;;;;;;;8.63;7.93;;;11.00;53.20;;;;;;20481;6853;307768;-78
2023/05/03 02:57:32;;;;;;;7.37;6.80;;;11.40;52.50;;;;;;20695;6853;117164;-78
2023/05/03 02:59:58;;;;;;;7.70;7.00;;;11.40;52.50;;;;;;20697;6853;117761;-78
2023/05/03 03:02:25;;;;;;;8.50;7.80;;;11.40;52.40;;;;;;20472;6853;278855;-78
2023/05/03 03:04:50;;;;;;;9.48;8.70;;;11.40;52.40;;;;;;20486;6853;307884;-78
2023/05/03 03:07:15;;;;;;;7.03;6.53;;;11.80;51.80;;;;;;20695;6853;118312;-79
2023/05/03 03:09:42;;;;;;;7.20;6.60;;;11.70;52.00;;;;;;20693;6853;117680;-79
2023/05/03 03:12:08;;;;;;;7.67;6.80;;;11.50;52.70;;;;;;20692;6853;117580;-78
2023/05/03 03:14:33;;;;;;;7.15;6.55;;;11.20;53.10;;;;;;20678;6853;118227;-78
2023/05/03 03:16:59;;;;;;;8.13;7.40;;;11.10;53.70;;;;;;20694;6853;117714;-80
2023/05/03 03:19:24;;;;;;;8.73;8.07;;;10.90;54.00;;;;;;20475;6853;308261;-78
2023/05/03 03:21:50;;;;;;;9.55;8.75;;;11.20;53.80;;;;;;20474;6853;312334;-78
2023/05/03 03:24:16;;;;;;;8.07;7.47;;;11.60;52.80;;;;;;20678;6853;124572;-78
2023/05/03 03:26:42;;;;;;;7.50;6.80;;;11.50;52.60;;;;;;20695;6853;117795;-79
2023/05/03 03:29:11;;;;;;;7.70;6.97;;;11.00;53.70;;;;;;20698;6853;117712;-74
2023/05/03 03:31:37;;;;;;;7.43;6.93;;;11.00;54.30;;;;;;20690;6853;118390;-76
2023/05/03 03:34:02;;;;;;;9.88;9.07;;;10.90;54.10;;;;;;20475;6853;307737;-75
2023/05/03 03:36:28;;;;;;;7.83;7.13;;;11.10;53.30;;;;;;20671;6853;118520;-75
2023/05/03 03:38:54;;;;;;;8.10;7.43;;;10.90;53.70;;;;;;20688;6853;117281;-74
2023/05/03 03:41:20;;;;;;;6.93;6.33;;;10.80;53.60;;;;;;20690;6853;117317;-74
2023/05/03 03:43:45;;;;;;;8.50;7.80;;;10.70;54.10;;;;;;20483;6853;279506;-74
2023/05/03 03:46:11;;;;;;;6.70;6.20;;;10.90;54.00;;;;;;20700;6853;117608;-74
2023/05/03 03:48:36;;;;;;;8.73;7.97;;;10.90;54.00;;;;;;20464;6853;281091;-74
2023/05/03 03:51:02;;;;;;;8.23;7.62;;;11.10;53.10;;;;;;20480;6853;308224;-74
2023/05/03 03:53:28;;;;;;;8.65;7.97;;;11.50;52.10;;;;;;20483;6853;308285;-74
2023/05/03 03:55:53;;;;;;;9.30;8.50;;;11.70;51.50;;;;;;20485;6853;338150;-75
2023/05/03 03:58:19;;;;;;;7.40;6.77;;;11.90;50.90;;;;;;20664;6853;117699;-75
2023/05/03 04:00:45;;;;;;;8.93;8.33;;;11.60;50.90;;;;;;20482;6853;307363;-74
2023/05/03 04:03:12;;;;;;;9.35;8.57;;;11.60;50.90;;;;;;20485;6851;309136;-75
2023/05/03 04:05:37;;;;;;;9.23;8.53;;;11.80;51.00;;;;;;20428;6853;277980;-74
2023/05/03 04:08:04;;;;;;;10.00;9.20;;;12.00;51.50;;;;;;20435;6853;307952;-76
2023/05/03 04:10:29;;;;;;;10.73;9.77;;;12.00;50.70;;;;;;20437;6853;307843;-75
2023/05/03 04:12:55;;;;;;;10.05;7.93;;;12.10;50.40;;;;;;20684;6853;118897;-74
2023/05/03 04:15:21;;;;;;;7.97;7.37;;;11.80;51.00;;;;;;20602;6853;117304;-74
2023/05/03 04:17:47;;;;;;;8.90;8.20;;;11.40;51.80;;;;;;20482;6853;300474;-74
2023/05/03 04:20:12;;;;;;;9.85;9.15;;;11.50;52.50;;;;;;20480;6853;278397;-74
2023/05/03 04:22:40;;;;;;;8.57;7.83;;;11.70;52.10;;;;;;20667;6853;117646;-75
2023/05/03 04:25:07;;;;;;;9.63;8.93;;;11.80;52.80;;;;;;20474;6853;278844;-72
2023/05/03 04:27:33;;;;;;;8.98;8.32;;;11.80;52.80;;;;;;20451;6853;327771;-70
2023/05/03 04:29:58;;;;;;;8.65;7.90;;;12.00;52.60;;;;;;20479;6853;336873;-73
2023/05/03 04:32:24;;;;;;;7.20;6.60;;;12.40;52.40;;;;;;20679;6853;124460;-73
2023/05/03 04:34:51;;;;;;;8.37;7.73;;;12.30;52.60;;;;;;20475;6853;307825;-72
2023/05/03 04:37:15;;;;;;;7.50;6.90;;;12.30;52.30;;;;;;20703;6853;67828;-74
2023/05/03 04:39:40;;;;;;;8.00;7.30;;;12.20;52.70;;;;;;20693;6853;116949;-72
2023/05/03 04:42:07;;;;;;;7.97;7.27;;;11.90;54.70;;;;;;20698;6853;117305;-72
2023/05/03 04:44:32;;;;;;;9.13;8.33;;;11.80;54.00;;;;;;20463;6853;321953;-73
2023/05/03 04:46:58;;;;;;;8.10;7.60;;;12.10;54.00;;;;;;20483;6853;308199;-72
2023/05/03 04:49:23;;;;;;;8.90;7.10;;;12.50;53.70;;;;;;20667;6853;117459;-73
2023/05/03 04:51:49;;;;;;;7.50;6.90;;;12.60;54.00;;;;;;20472;6853;308003;-73
2023/05/03 04:54:15;;;;;;;6.57;6.10;;;12.70;52.70;;;;;;20695;6853;123987;-73
2023/05/03 04:56:40;;;;;;;7.03;6.43;;;12.60;52.70;;;;;;20338;6853;302664;-73
2023/05/03 04:59:06;;;;;;;6.63;6.03;;;12.70;51.60;;;;;;20694;6853;116478;-74
2023/05/03 05:01:31;;;;;;;6.47;5.87;;;12.60;51.80;;;;;;20686;6853;118941;-73
2023/05/03 05:03:57;;;;;;;6.60;6.00;;;12.30;52.30;;;;;;20695;6853;117122;-74
2023/05/03 05:06:23;;;;;;;8.97;6.20;;;11.90;53.30;;;;;;20675;6853;120296;-76
2023/05/03 05:08:49;;;;;;;7.22;6.62;;;12.20;52.40;;;;;;20480;6853;290484;-72
2023/05/03 05:11:15;;;;;;;7.13;6.17;;;12.20;52.90;;;;;;20696;6853;119472;-77
2023/05/03 05:13:41;;;;;;;7.00;5.80;;;12.30;53.10;;;;;;20673;6852;121146;-74
2023/05/03 05:16:06;;;;;;;6.65;6.15;;;12.20;53.40;;;;;;20448;6853;281608;-70
2023/05/03 05:18:32;;;;;;;6.97;6.37;;;12.50;52.50;;;;;;20442;6853;307733;-71
2023/05/03 05:20:58;;;;;;;6.20;5.80;;;13.00;51.90;;;;;;20698;6853;117415;-71
2023/05/03 05:23:24;;;;;;;6.63;6.13;;;13.00;51.90;;;;;;20694;6853;117578;-73
2023/05/03 05:25:49;;;;;;;6.63;6.17;;;12.90;52.40;;;;;;20486;6853;311762;-75
2023/05/03 05:28:15;;;;;;;7.32;6.72;;;13.50;50.80;;;;;;20464;6853;307720;-72
2023/05/03 05:30:41;;;;;;;5.97;5.53;;;13.50;50.80;;;;;;20695;6853;118554;-73
2023/05/03 05:33:07;;;;;;;6.93;6.37;;;13.50;51.00;;;;;;20473;6853;312744;-72
2023/05/03 05:35:34;;;;;;;5.90;5.33;;;13.70;50.60;;;;;;20686;6853;122920;-76
2023/05/03 05:38:00;;;;;;;5.57;5.07;;;13.70;51.00;;;;;;20696;6853;121105;-74
2023/05/03 05:40:26;;;;;;;6.10;5.60;;;13.60;51.60;;;;;;20468;6853;278225;-76
2023/05/03 05:42:52;;;;;;;6.15;5.65;;;14.10;50.80;;;;;;20478;6853;338207;-76
2023/05/03 05:45:17;;;;;;;5.70;5.27;;;14.00;50.10;;;;;;20481;6853;337377;-76
2023/05/03 05:47:44;;;;;;;5.77;5.47;;;14.60;48.90;;;;;;20479;6853;337306;-74
2023/05/03 05:50:09;;;;;;;5.00;4.70;;;14.60;48.90;;;;;;20691;6853;117680;-73
2023/05/03 05:52:35;;;;;;;5.53;5.10;;;14.60;49.60;;;;;;20466;6853;290886;-74
2023/05/03 05:55:01;;;;;;;8.50;7.70;;;14.90;48.50;;;;;;20480;6853;299193;-73
2023/05/03 05:57:27;;;;;;;5.03;4.70;;;14.90;48.50;;;;;;20698;6853;117656;-71
2023/05/03 05:59:52;;;;;;;5.50;5.10;;;14.80;49.10;;;;;;20475;6853;333432;-73
2023/05/03 06:02:22;;;;;;;5.00;4.70;;;14.90;48.70;;;;;;20461;6853;308252;-72
2023/05/03 06:04:44;;;;;;;5.93;5.50;;;15.10;48.50;;;;;;20478;6853;280096;-73
2023/05/03 06:07:09;;;;;;;5.83;5.33;;;15.40;48.10;;;;;;20487;6853;277809;-73
2023/05/03 06:09:35;;;;;;;5.23;4.70;;;15.50;47.60;;;;;;20699;6853;117099;-73
2023/05/03 06:12:01;;;;;;;5.47;5.17;;;15.40;48.40;;;;;;20486;6853;278767;-72
2023/05/03 06:14:28;;;;;;;5.87;5.50;;;15.60;47.50;;;;;;20453;6853;305833;-73
2023/05/03 06:16:53;;;;;;;7.90;7.23;;;15.60;47.50;;;;;;20692;6853;117775;-72
2023/05/03 06:19:19;;;;;;;5.72;5.32;;;15.60;48.10;;;;;;20468;6853;331969;-73
2023/05/03 06:21:45;;;;;;;6.33;5.90;;;15.50;47.50;;;;;;20688;6853;117693;-73
2023/05/03 06:24:10;;;;;;;8.83;8.23;;;15.40;48.40;;;;;;20485;6853;281414;-72
2023/05/03 06:26:36;;;;;;;5.68;5.32;;;15.20;48.40;;;;;;20675;6852;121962;-73
2023/05/03 06:29:03;;;;;;;8.10;7.50;;;15.10;48.30;;;;;;20485;6853;337299;-72
2023/05/03 06:31:28;;;;;;;9.60;8.83;;;15.10;48.30;;;;;;20467;6853;305680;-72
2023/05/03 06:33:55;;;;;;;10.55;9.75;;;15.40;47.30;;;;;;20482;6853;278756;-75
2023/05/03 06:36:20;;;;;;;8.33;7.60;;;15.40;47.30;;;;;;20675;6853;121735;-72
2023/05/03 06:38:46;;;;;;;9.77;8.80;;;15.20;48.10;;;;;;20690;6853;117819;-72
2023/05/03 06:41:11;;;;;;;12.10;11.20;;;14.80;49.00;;;;;;20526;6853;300347;-72
2023/05/03 06:43:37;;;;;;;9.63;8.73;;;14.90;48.10;;;;;;20481;6853;280549;-72
2023/05/03 06:46:03;;;;;;;10.65;9.75;;;15.20;48.30;;;;;;20479;6853;342039;-72
2023/05/03 06:48:29;;;;;;;7.33;6.73;;;15.20;48.30;;;;;;20672;6853;122333;-73
2023/05/03 06:50:54;;;;;;;10.70;9.90;;;15.10;48.80;;;;;;20476;6853;277966;-72
2023/05/03 06:53:20;;;;;;;10.35;9.65;;;15.20;48.80;;;;;;20483;6853;308346;-72
2023/05/03 06:55:46;;;;;;;10.57;9.83;;;15.50;48.10;;;;;;20491;6853;278380;-72
2023/05/03 06:58:11;;;;;;;12.27;11.38;;;15.70;47.50;;;;;;20479;6853;308021;-71
2023/05/03 07:00:40;;;;;;;9.80;8.80;;;15.80;46.90;;;;;;20681;6853;118742;-72
2023/05/03 07:03:05;;;;;;;11.23;10.38;;;15.60;47.90;;;;;;20483;6853;308221;-72
2023/05/03 07:05:31;;;;;;;11.80;10.90;;;15.70;47.40;;;;;;20703;6853;118012;-73
2023/05/03 07:07:56;;;;;;;12.17;11.17;;;15.50;48.00;;;;;;20485;6853;307900;-72
2023/05/03 07:10:22;;;;;;;11.53;10.70;;;15.50;47.60;;;;;;20677;6853;117906;-74
2023/05/03 07:12:47;;;;;;;10.67;9.87;;;15.60;48.70;;;;;;20696;6853;119300;-73
2023/05/03 07:15:13;;;;;;;9.15;8.43;;;15.50;49.20;;;;;;20697;6853;117429;-72
2023/05/03 07:17:39;;;;;;;8.83;8.10;;;15.40;49.70;;;;;;20697;6853;123210;-71
2023/05/03 07:20:06;;;;;;;9.17;8.57;;;15.70;49.00;;;;;;20487;6853;278781;-73
2023/05/03 07:22:31;;;;;;;10.20;9.37;;;15.70;49.00;;;;;;20674;6853;117758;-72
2023/05/03 07:24:58;;;;;;;5.62;5.32;;;16.00;49.10;;;;;;20697;6853;117586;-72
2023/05/03 07:27:23;;;;;;;7.43;6.87;;;16.00;49.70;;;;;;20475;6853;312935;-73
2023/05/03 07:29:49;;;;;;;9.63;8.83;;;16.40;48.00;;;;;;20688;6853;117137;-71
2023/05/03 07:32:15;;;;;;;7.73;7.13;;;16.80;48.30;;;;;;20471;6853;307880;-73
2023/05/03 07:34:40;;;;;;;7.45;6.97;;;17.10;46.90;;;;;;20479;6853;308246;-72
2023/05/03 07:37:06;;;;;;;6.70;6.30;;;17.70;46.10;;;;;;20490;6851;306983;-72
2023/05/03 07:39:31;;;;;;;5.87;5.53;;;18.30;45.00;;;;;;20704;6853;117483;-72
2023/05/03 07:41:57;;;;;;;10.18;9.27;;;18.60;45.60;;;;;;20494;6853;312506;-74
2023/05/03 07:44:22;;;;;;;7.70;7.20;;;18.80;43.40;;;;;;20705;6853;120619;-78
2023/05/03 07:46:49;;;;;;;6.32;6.03;;;19.10;43.30;;;;;;20487;6853;326779;-74
2023/05/03 07:49:15;;;;;;;9.80;9.00;;;19.00;43.20;;;;;;20697;6853;117269;-74
2023/05/03 07:51:40;;;;;;;8.33;7.83;;;19.10;44.10;;;;;;20482;6853;341733;-74
2023/05/03 07:54:05;;;;;;;8.57;8.07;;;19.20;42.70;;;;;;20466;6853;307793;-72
2023/05/03 07:56:31;;;;;;;10.30;9.63;;;19.30;42.50;;;;;;20445;6853;337755;-72
2023/05/03 07:58:56;;;;;;;8.77;8.27;;;19.50;42.00;;;;;;20692;6853;118594;-72
2023/05/03 08:01:22;;;;;;;7.47;7.07;;;19.30;42.70;;;;;;20481;6853;292175;-72
2023/05/03 08:03:52;;;;;;;5.77;5.47;;;19.30;42.50;;;;;;20692;6853;119622;-72
2023/05/03 08:06:17;;;;;;;8.10;7.60;;;19.30;43.60;;;;;;20678;6853;127423;-73
2023/05/03 08:08:44;;;;;;;8.87;8.27;;;19.10;45.10;;;;;;20653;6853;118262;-73
2023/05/03 08:11:09;;;;;;;8.70;8.20;;;19.10;45.10;;;;;;20700;6853;117292;-73
2023/05/03 08:13:35;;;;;;;7.77;7.27;;;19.10;45.50;;;;;;20691;6853;117270;-73
2023/05/03 08:16:00;;;;;;;9.53;8.73;;;19.10;45.50;;;;;;20700;6853;118370;-73
2023/05/03 08:18:27;;;;;;;9.33;8.53;;;19.20;45.60;;;;;;20680;6853;127018;-72
2023/05/03 08:20:52;;;;;;;5.90;5.50;;;19.10;45.50;;;;;;20486;6853;300983;-72
2023/05/03 08:23:20;;;;;;;9.17;8.47;;;19.50;43.60;;;;;;20699;6853;117301;-72
2023/05/03 08:25:44;;;;;;;6.93;6.47;;;19.50;43.60;;;;;;20681;6853;117205;-72
2023/05/03 08:28:10;;;;;;;9.30;8.60;;;19.50;44.30;;;;;;20693;6853;120393;-73
2023/05/03 08:30:35;;;;;;;9.07;8.50;;;19.50;44.70;;;;;;20459;6853;279101;-73
2023/05/03 08:33:01;;;;;;;11.87;11.17;;;19.80;42.90;;;;;;20484;6853;328440;-73
2023/05/03 08:35:27;;;;;;;10.80;10.20;;;20.30;42.80;;;;;;20486;6853;308315;-71
2023/05/03 08:37:52;;;;;;;12.52;11.68;;;20.70;40.90;;;;;;20477;6853;339676;-72
2023/05/03 08:40:17;;;;;;;12.53;11.67;;;20.90;39.90;;;;;;20454;6853;324801;-73
2023/05/03 08:42:43;;;;;;;8.40;7.87;;;21.00;40.80;;;;;;20471;6853;342359;-71
2023/05/03 08:45:11;;;;;;;9.40;8.60;;;21.00;41.60;;;;;;20685;6853;120822;-72
2023/05/03 08:47:38;;;;;;;10.97;10.27;;;21.00;41.60;;;;;;20492;6853;278166;-72
2023/05/03 08:50:05;;;;;;;12.50;11.60;;;21.10;41.00;;;;;;20487;6852;311802;-72
2023/05/03 08:52:30;;;;;;;9.40;8.80;;;21.50;40.10;;;;;;20476;6853;309104;-72
2023/05/03 08:54:56;;;;;;;10.43;9.63;;;21.70;39.30;;;;;;20486;6853;337780;-72
2023/05/03 08:57:21;;;;;;;12.33;11.53;;;21.80;39.40;;;;;;20484;6853;280014;-72
2023/05/03 08:59:52;;;;;;;13.43;12.37;;;22.00;38.60;;;;;;20477;6853;278365;-72
2023/05/03 09:02:16;;;;;;;9.80;9.20;;;22.10;38.80;;;;;;20451;6853;305477;-73
2023/05/03 09:04:42;;;;;;;11.37;10.40;;;22.10;38.80;;;;;;20695;6853;117322;-72
2023/05/03 09:07:10;;;;;;;10.63;9.83;;;22.10;40.60;;;;;;20695;6853;117464;-73
2023/05/03 09:09:36;;;;;;;12.23;10.77;;;21.90;41.60;;;;;;20481;6853;280048;-72
2023/05/03 09:12:01;;;;;;;11.50;10.80;;;22.00;40.00;;;;;;20479;6853;336906;-72
2023/05/03 09:14:28;;;;;;;10.70;9.90;;;22.30;38.90;;;;;;20675;6853;118833;-72
2023/05/03 09:16:54;;;;;;;11.77;10.60;;;22.20;39.90;;;;;;20489;6853;329778;-72
2023/05/03 09:19:20;;;;;;;11.63;10.80;;;22.10;39.00;;;;;;20702;6853;119936;-72
2023/05/03 09:21:49;;;;;;;11.40;10.70;;;21.90;40.10;;;;;;20482;6853;306319;-72
2023/05/03 09:24:14;;;;;;;10.80;9.87;;;21.90;39.40;;;;;;20698;6853;117896;-72
2023/05/03 09:26:39;;;;;;;11.27;10.57;;;21.80;40.70;;;;;;20472;6853;308712;-72
2023/05/03 09:29:05;;;;;;;11.43;10.63;;;21.80;39.10;;;;;;20693;6853;118023;-72
2023/05/03 09:31:31;;;;;;;10.50;9.70;;;21.70;41.00;;;;;;20688;6853;117532;-72
2023/05/03 09:33:57;;;;;;;10.20;9.47;;;21.60;40.90;;;;;;20687;6853;117296;-72
2023/05/03 09:36:22;;;;;;;12.33;11.43;;;21.50;41.40;;;;;;20464;6853;282949;-72
2023/05/03 09:38:48;;;;;;;11.25;10.55;;;21.50;40.70;;;;;;20479;6853;278893;-72
2023/05/03 09:41:13;;;;;;;10.30;9.70;;;21.70;40.20;;;;;;20692;6853;117392;-72
2023/05/03 09:43:49;;;;;;;11.55;10.75;;;21.80;41.00;;;;;;20478;6853;280816;-72
2023/05/03 09:46:14;;;;;;;11.98;11.18;;;21.80;39.30;;;;;;20410;6853;307740;-72
2023/05/03 09:48:40;;;;;;;10.18;9.35;;;22.00;38.90;;;;;;20696;6853;117638;-71
2023/05/03 09:51:05;;;;;;;11.32;10.45;;;21.90;39.70;;;;;;20694;6853;117380;-71
2023/05/03 09:53:30;;;;;;;10.73;10.02;;;21.70;40.30;;;;;;20475;6853;284002;-70
2023/05/03 09:55:56;;;;;;;11.03;10.40;;;21.70;39.60;;;;;;20689;6853;117531;-71
2023/05/03 09:58:22;;;;;;;9.63;8.73;;;21.60;41.10;;;;;;20671;6853;117596;-74
2023/05/03 10:00:50;;;;;;;9.63;9.02;;;21.70;40.20;;;;;;20481;6851;278475;-72
2023/05/03 10:03:14;;;;;;;10.02;9.43;;;21.70;40.10;;;;;;20480;6853;278482;-73
2023/05/03 10:05:46;;;;;;;8.70;8.20;;;22.10;39.70;;;;;;20674;6853;121730;-75
2023/05/03 10:08:11;;;;;;;8.70;8.17;;;22.10;39.80;;;;;;20693;6853;119154;-73
2023/05/03 10:10:37;;;;;;;10.33;9.63;;;22.00;40.60;;;;;;20655;6853;120236;-74
2023/05/03 10:13:04;;;;;;;10.53;9.83;;;22.00;41.20;;;;;;20695;6853;117820;-76
2023/05/03 10:15:30;;;;;;;10.27;9.57;;;21.90;41.50;;;;;;20481;6853;278392;-74
2023/05/03 10:17:55;;;;;;;10.88;10.07;;;22.20;40.40;;;;;;20468;6853;309097;-73
2023/05/03 10:20:25;;;;;;;8.70;8.20;;;22.50;38.30;;;;;;20681;6853;120145;-75
2023/05/03 10:23:06;;;;;;;9.33;8.63;;;22.60;39.40;;;;;;20684;6853;117352;-75
2023/05/03 10:25:31;;;;;;;8.83;8.23;;;22.40;39.90;;;;;;20692;6853;117564;-73
2023/05/03 10:28:07;;;;;;;8.60;8.00;;;22.20;40.20;;;;;;20687;6853;117630;-74
2023/05/03 10:30:36;;;;;;;9.50;8.80;;;22.00;40.50;;;;;;20457;6853;307867;-73
2023/05/03 10:33:11;;;;;;;7.60;7.20;;;22.30;38.40;;;;;;20690;6853;123929;-75
2023/05/03 10:35:40;;;;;;;7.70;7.20;;;22.40;38.90;;;;;;20690;6853;117142;-73
2023/05/03 10:38:16;;;;;;;9.20;8.50;;;22.20;39.30;;;;;;20687;6853;117579;-73
2023/05/03 10:40:42;;;;;;;8.43;7.80;;;22.10;39.90;;;;;;20675;6853;117393;-72
2023/05/03 10:43:08;;;;;;;7.53;6.72;;;22.00;40.80;;;;;;20674;6853;118719;-73
2023/05/03 10:45:33;;;;;;;8.97;8.30;;;22.00;40.70;;;;;;20595;6853;119318;-71
2023/05/03 10:48:09;;;;;;;8.02;7.45;;;22.10;41.20;;;;;;20694;6853;121955;-74
2023/05/03 10:50:35;;;;;;;6.33;5.83;;;22.10;40.70;;;;;;20657;6853;117474;-73
2023/05/03 10:53:00;;;;;;;8.80;8.10;;;22.10;39.80;;;;;;20687;6853;117631;-73
2023/05/03 10:55:30;;;;;;;10.03;9.13;;;22.10;39.80;;;;;;20421;6853;283143;-78
2023/05/03 10:57:57;;;;;;;9.70;9.10;;;22.30;38.30;;;;;;20473;6853;278344;-72
2023/05/03 11:00:32;;;;;;;9.10;8.40;;;22.60;37.60;;;;;;20449;6853;307673;-75
2023/05/03 11:03:01;;;;;;;8.33;7.83;;;22.80;36.70;;;;;;20458;6853;307432;-73
2023/05/03 11:05:27;;;;;;;9.18;8.48;;;23.00;36.50;;;;;;20480;6853;312065;-74
2023/05/03 11:07:53;;;;;;;8.03;7.33;;;23.20;36.40;;;;;;20688;6853;117192;-73
2023/05/03 11:10:17;;;;;;;8.20;7.60;;;23.10;37.20;;;;;;20464;6853;278353;-75
2023/05/03 11:12:43;;;;;;;8.00;7.50;;;23.00;35.80;;;;;;20696;6852;117708;-73
2023/05/03 11:15:11;;;;;;;8.23;7.63;;;22.60;38.80;;;;;;20690;6853;117501;-73
2023/05/03 11:17:35;;;;;;;8.90;8.10;;;22.60;38.00;;;;;;20695;6853;117138;-73
2023/05/03 11:20:02;;;;;;;9.37;8.73;;;22.40;37.20;;;;;;20478;6853;278797;-73
2023/05/03 11:22:27;;;;;;;9.17;8.53;;;22.40;37.20;;;;;;20677;6853;120685;-74
2023/05/03 11:24:53;;;;;;;8.00;7.30;;;22.40;37.90;;;;;;20695;6853;119946;-73
2023/05/03 11:27:22;;;;;;;8.70;8.00;;;22.20;38.20;;;;;;20478;6853;279291;-71
2023/05/03 11:29:48;;;;;;;8.20;7.40;;;22.20;36.50;;;;;;20686;6853;117143;-72
2023/05/03 11:32:14;;;;;;;7.80;7.30;;;22.20;37.60;;;;;;20688;6853;117164;-73
2023/05/03 11:34:39;;;;;;;8.57;8.07;;;22.20;36.70;;;;;;20453;6853;307810;-74
2023/05/03 11:37:05;;;;;;;8.40;7.83;;;22.10;36.60;;;;;;20466;6853;307878;-73
2023/05/03 11:39:32;;;;;;;8.15;7.50;;;22.40;38.40;;;;;;20675;6853;117684;-73
2023/05/03 11:42:06;;;;;;;8.30;7.60;;;22.40;38.30;;;;;;20691;6853;117145;-73
2023/05/03 11:44:31;;;;;;;7.50;6.50;;;22.30;38.40;;;;;;20669;6853;120367;-73
2023/05/03 11:46:57;;;;;;;8.40;7.90;;;22.10;39.00;;;;;;20468;6853;323746;-73
2023/05/03 11:49:22;;;;;;;8.73;8.23;;;22.20;37.20;;;;;;20463;6853;279906;-73
2023/05/03 11:51:48;;;;;;;8.23;7.72;;;22.40;36.90;;;;;;20664;6853;117596;-73
2023/05/03 11:54:15;;;;;;;7.53;7.03;;;22.30;37.70;;;;;;20649;6853;117931;-75
2023/05/03 11:56:41;;;;;;;7.10;6.70;;;22.00;38.90;;;;;;20651;6853;117812;-76
2023/05/03 11:59:07;;;;;;;7.10;6.60;;;21.90;39.10;;;;;;20652;6853;118187;-73
2023/05/03 12:01:32;;;;;;;7.00;6.53;;;22.00;39.80;;;;;;20656;6853;117286;-73
2023/05/03 12:03:58;;;;;;;7.20;6.80;;;22.00;39.80;;;;;;20461;6853;277834;-73
2023/05/03 12:06:26;;;;;;;7.43;7.03;;;22.50;36.20;;;;;;20458;6853;327035;-71
2023/05/03 12:08:50;;;;;;;7.00;6.60;;;22.50;36.20;;;;;;20478;6853;313075;-73
2023/05/03 12:11:16;;;;;;;6.83;6.33;;;22.60;36.60;;;;;;20691;6853;117248;-76
2023/05/03 12:13:42;;;;;;;6.80;6.27;;;22.60;36.60;;;;;;20484;6853;307297;-74
2023/05/03 12:16:07;;;;;;;6.60;5.80;;;22.70;36.10;;;;;;20481;6853;296236;-75
2023/05/03 12:18:50;;;;;;;6.27;5.87;;;22.80;35.10;;;;;;20457;6853;278624;-71
2023/05/03 12:21:16;;;;;;;6.17;5.77;;;22.90;36.30;;;;;;20117;6853;295298;-72
2023/05/03 12:23:41;;;;;;;5.55;5.15;;;23.00;35.80;;;;;;20679;6852;117197;-73
2023/05/03 12:26:06;;;;;;;6.23;5.83;;;22.90;36.60;;;;;;20629;6853;117140;-72
2023/05/03 12:28:32;;;;;;;7.00;6.37;;;22.70;36.60;;;;;;20427;6853;308102;-71